sensor_id;sensor_type;location;lat;lon;timestamp;pressure;altitude;pressure_sealevel;temperature;humidity
49451;BME280;35336;48.400;10.886;2023-01-27T00:00:12;96346.28;;;-2.47;92.79
49451;BME280;35336;48.400;10.886;2023-01-27T00:00:28;96367.19;;;-2.36;92.81
49451;BME280;35336;48.400;10.886;2023-01-27T00:00:47;96371.72;;;-2.27;92.33
49451;BME280;35336;48.400;10.886;2023-01-27T00:01:03;96367.44;;;-2.28;92.38
49451;BME280;35336;48.400;10.886;2023-01-27T00:01:18;96372.47;;;-2.25;92.48
49451;BME280;35336;48.400;10.886;2023-01-27T00:01:34;96375.28;;;-2.28;92.30
49451;BME280;35336;48.400;10.886;2023-01-27T00:01:50;96327.97;;;-2.59;92.41
49451;BME280;35336;48.400;10.886;2023-01-27T00:02:05;96372.47;;;-2.25;92.29
49451;BME280;35336;48.400;10.886;2023-01-27T00:02:21;96374.94;;;-2.23;92.17
49451;BME280;35336;48.400;10.886;2023-01-27T00:02:37;96353.19;;;-2.35;92.12
49451;BME280;35336;48.400;10.886;2023-01-27T00:02:53;96375.88;;;-2.24;92.16
49451;BME280;35336;48.400;10.886;2023-01-27T00:03:11;96369.00;;;-2.25;92.07
49451;BME280;35336;48.400;10.886;2023-01-27T00:03:27;96370.28;;;-2.31;91.94
49451;BME280;35336;48.400;10.886;2023-01-27T00:03:42;96347.84;;;-2.45;92.15
49451;BME280;35336;48.400;10.886;2023-01-27T00:03:58;96372.06;;;-2.31;92.05
49451;BME280;35336;48.400;10.886;2023-01-27T00:04:13;96374.81;;;-2.33;92.10
49451;BME280;35336;48.400;10.886;2023-01-27T00:04:28;96368.03;;;-2.35;92.28
49451;BME280;35336;48.400;10.886;2023-01-27T00:04:43;96367.19;;;-2.36;92.48
49451;BME280;35336;48.400;10.886;2023-01-27T00:04:59;96364.59;;;-2.36;92.32
49451;BME280;35336;48.400;10.886;2023-01-27T00:05:14;96361.25;;;-2.38;92.56
49451;BME280;35336;48.400;10.886;2023-01-27T00:05:30;96370.53;;;-2.34;92.46
49451;BME280;35336;48.400;10.886;2023-01-27T00:05:45;96372.06;;;-2.31;92.63
49451;BME280;35336;48.400;10.886;2023-01-27T00:06:01;96365.91;;;-2.30;92.75
49451;BME280;35336;48.400;10.886;2023-01-27T00:06:16;96354.38;;;-2.39;92.38
49451;BME280;35336;48.400;10.886;2023-01-27T00:06:31;96355.09;;;-2.37;92.52
49451;BME280;35336;48.400;10.886;2023-01-27T00:06:47;96344.97;;;-2.42;92.38
49451;BME280;35336;48.400;10.886;2023-01-27T00:07:02;96364.13;;;-2.30;92.41
49451;BME280;35336;48.400;10.886;2023-01-27T00:07:17;96371.94;;;-2.30;92.21
49451;BME280;35336;48.400;10.886;2023-01-27T00:07:33;96355.41;;;-2.42;92.48
49451;BME280;35336;48.400;10.886;2023-01-27T00:07:48;96366.13;;;-2.33;92.32
49451;BME280;35336;48.400;10.886;2023-01-27T00:08:04;96353.78;;;-2.43;92.20
49451;BME280;35336;48.400;10.886;2023-01-27T00:08:19;96355.22;;;-2.38;92.42
49451;BME280;35336;48.400;10.886;2023-01-27T00:08:35;96368.75;;;-2.33;92.53
49451;BME280;35336;48.400;10.886;2023-01-27T00:08:50;96363.44;;;-2.32;92.35
49451;BME280;35336;48.400;10.886;2023-01-27T00:09:05;96366.03;;;-2.32;92.20
49451;BME280;35336;48.400;10.886;2023-01-27T00:09:21;96361.97;;;-2.36;92.26
49451;BME280;35336;48.400;10.886;2023-01-27T00:09:36;96342.97;;;-2.49;92.23
49451;BME280;35336;48.400;10.886;2023-01-27T00:09:51;96346.50;;;-2.50;92.33
49451;BME280;35336;48.400;10.886;2023-01-27T00:10:08;96367.66;;;-2.42;92.68
49451;BME280;35336;48.400;10.886;2023-01-27T00:10:25;96353.88;;;-2.44;92.39
49451;BME280;35336;48.400;10.886;2023-01-27T00:10:40;96344.50;;;-2.47;92.31
49451;BME280;35336;48.400;10.886;2023-01-27T00:10:57;96356.88;;;-2.37;92.25
49451;BME280;35336;48.400;10.886;2023-01-27T00:11:13;96362.22;;;-2.39;92.01
49451;BME280;35336;48.400;10.886;2023-01-27T00:11:28;96361.16;;;-2.36;92.05
49451;BME280;35336;48.400;10.886;2023-01-27T00:11:43;96343.69;;;-2.47;92.31
49451;BME280;35336;48.400;10.886;2023-01-27T00:11:59;96356.41;;;-2.43;92.25
49451;BME280;35336;48.400;10.886;2023-01-27T00:12:19;96351.50;;;-2.47;92.57
49451;BME280;35336;48.400;10.886;2023-01-27T00:12:35;96344.03;;;-2.52;92.65
49451;BME280;35336;48.400;10.886;2023-01-27T00:12:50;96360.44;;;-2.38;92.72
49451;BME280;35336;48.400;10.886;2023-01-27T00:13:06;96326.56;;;-2.63;92.51
49451;BME280;35336;48.400;10.886;2023-01-27T00:13:21;96357.81;;;-2.38;92.70
49451;BME280;35336;48.400;10.886;2023-01-27T00:13:36;96361.25;;;-2.38;92.68
49451;BME280;35336;48.400;10.886;2023-01-27T00:13:52;96357.94;;;-2.40;93.06
49451;BME280;35336;48.400;10.886;2023-01-27T00:14:07;96362.91;;;-2.37;93.25
49451;BME280;35336;48.400;10.886;2023-01-27T00:14:22;96328.69;;;-2.57;93.15
49451;BME280;35336;48.400;10.886;2023-01-27T00:14:38;96332.72;;;-2.52;93.32
49451;BME280;35336;48.400;10.886;2023-01-27T00:14:53;96350.09;;;-2.40;93.14
49451;BME280;35336;48.400;10.886;2023-01-27T00:15:10;96357.47;;;-2.34;93.08
49451;BME280;35336;48.400;10.886;2023-01-27T00:15:26;96339.66;;;-2.40;92.89
49451;BME280;35336;48.400;10.886;2023-01-27T00:15:42;96345.81;;;-2.41;92.88
49451;BME280;35336;48.400;10.886;2023-01-27T00:15:57;96359.97;;;-2.32;92.74
49451;BME280;35336;48.400;10.886;2023-01-27T00:16:13;96354.47;;;-2.41;92.70
49451;BME280;35336;48.400;10.886;2023-01-27T00:16:28;96350.31;;;-2.43;92.77
49451;BME280;35336;48.400;10.886;2023-01-27T00:16:43;96367.66;;;-2.31;92.90
49451;BME280;35336;48.400;10.886;2023-01-27T00:16:59;96355.81;;;-2.35;92.82
49451;BME280;35336;48.400;10.886;2023-01-27T00:17:14;96346.56;;;-2.39;92.87
49451;BME280;35336;48.400;10.886;2023-01-27T00:17:29;96338.47;;;-2.47;93.07
49451;BME280;35336;48.400;10.886;2023-01-27T00:17:45;96364.25;;;-2.31;92.85
49451;BME280;35336;48.400;10.886;2023-01-27T00:18:00;96358.06;;;-2.30;92.96
49451;BME280;35336;48.400;10.886;2023-01-27T00:18:16;96327.50;;;-2.52;92.93
49451;BME280;35336;48.400;10.886;2023-01-27T00:18:31;96364.97;;;-2.29;93.13
49451;BME280;35336;48.400;10.886;2023-01-27T00:18:46;96364.97;;;-2.29;92.98
49451;BME280;35336;48.400;10.886;2023-01-27T00:19:02;96363.19;;;-2.29;93.14
49451;BME280;35336;48.400;10.886;2023-01-27T00:19:17;96361.03;;;-2.24;93.08
49451;BME280;35336;48.400;10.886;2023-01-27T00:19:32;96335.38;;;-2.41;92.89
49451;BME280;35336;48.400;10.886;2023-01-27T00:19:48;96357.72;;;-2.26;92.74
49451;BME280;35336;48.400;10.886;2023-01-27T00:20:04;96347.25;;;-2.37;92.69
49451;BME280;35336;48.400;10.886;2023-01-27T00:20:20;96361.03;;;-2.24;92.82
49451;BME280;35336;48.400;10.886;2023-01-27T00:20:35;96356.06;;;-2.27;92.46
49451;BME280;35336;48.400;10.886;2023-01-27T00:20:51;96331.22;;;-2.44;92.28
49451;BME280;35336;48.400;10.886;2023-01-27T00:21:06;96358.69;;;-2.27;92.24
49451;BME280;35336;48.400;10.886;2023-01-27T00:21:22;96344.63;;;-2.37;91.71
49451;BME280;35336;48.400;10.886;2023-01-27T00:21:37;96358.56;;;-2.25;91.79
49451;BME280;35336;48.400;10.886;2023-01-27T00:21:52;96359.75;;;-2.29;91.80
49451;BME280;35336;48.400;10.886;2023-01-27T00:22:08;96362.94;;;-2.26;91.59
49451;BME280;35336;48.400;10.886;2023-01-27T00:22:23;96362.09;;;-2.26;91.71
49451;BME280;35336;48.400;10.886;2023-01-27T00:22:38;96327.56;;;-2.41;91.64
49451;BME280;35336;48.400;10.886;2023-01-27T00:22:54;96334.53;;;-2.42;91.52
49451;BME280;35336;48.400;10.886;2023-01-27T00:23:15;96341.81;;;-2.34;91.44
49451;BME280;35336;48.400;10.886;2023-01-27T00:23:30;96356.06;;;-2.27;91.77
49451;BME280;35336;48.400;10.886;2023-01-27T00:23:46;96353.19;;;-2.24;91.61
49451;BME280;35336;48.400;10.886;2023-01-27T00:24:01;96348.44;;;-2.30;91.46
49451;BME280;35336;48.400;10.886;2023-01-27T00:24:17;96351.78;;;-2.28;91.26
49451;BME280;35336;48.400;10.886;2023-01-27T00:24:32;96355.22;;;-2.27;91.27
49451;BME280;35336;48.400;10.886;2023-01-27T00:24:47;96351.91;;;-2.29;91.28
49451;BME280;35336;48.400;10.886;2023-01-27T00:25:03;96342.88;;;-2.36;91.55
49451;BME280;35336;48.400;10.886;2023-01-27T00:25:18;96329.22;;;-2.40;91.19
49451;BME280;35336;48.400;10.886;2023-01-27T00:25:34;96348.22;;;-2.27;91.32
49451;BME280;35336;48.400;10.886;2023-01-27T00:25:50;96354.06;;;-2.23;91.32
49451;BME280;35336;48.400;10.886;2023-01-27T00:26:07;96347.16;;;-2.24;91.38
49451;BME280;35336;48.400;10.886;2023-01-27T00:26:22;96352.38;;;-2.24;91.40
49451;BME280;35336;48.400;10.886;2023-01-27T00:26:38;96354.28;;;-2.26;91.43
49451;BME280;35336;48.400;10.886;2023-01-27T00:26:53;96335.13;;;-2.38;91.68
49451;BME280;35336;48.400;10.886;2023-01-27T00:27:09;96356.06;;;-2.27;91.83
49451;BME280;35336;48.400;10.886;2023-01-27T00:27:24;96355.34;;;-2.29;91.75
49451;BME280;35336;48.400;10.886;2023-01-27T00:27:40;96352.84;;;-2.30;91.62
49451;BME280;35336;48.400;10.886;2023-01-27T00:27:55;96352.00;;;-2.31;91.68
49451;BME280;35336;48.400;10.886;2023-01-27T00:28:10;96354.53;;;-2.29;91.79
49451;BME280;35336;48.400;10.886;2023-01-27T00:28:26;96353.91;;;-2.33;91.62
49451;BME280;35336;48.400;10.886;2023-01-27T00:28:42;96341.81;;;-2.34;91.55
49451;BME280;35336;48.400;10.886;2023-01-27T00:28:58;96352.59;;;-2.27;91.58
49451;BME280;35336;48.400;10.886;2023-01-27T00:29:13;96328.50;;;-2.42;91.52
49451;BME280;35336;48.400;10.886;2023-01-27T00:29:28;96348.44;;;-2.30;91.68
49451;BME280;35336;48.400;10.886;2023-01-27T00:29:44;96339.53;;;-2.38;91.64
49451;BME280;35336;48.400;10.886;2023-01-27T00:29:59;96350.38;;;-2.32;91.74
49451;BME280;35336;48.400;10.886;2023-01-27T00:30:14;96349.50;;;-2.32;91.72
49451;BME280;35336;48.400;10.886;2023-01-27T00:30:30;96347.97;;;-2.35;91.93
49451;BME280;35336;48.400;10.886;2023-01-27T00:30:45;96337.16;;;-2.42;92.05
49451;BME280;35336;48.400;10.886;2023-01-27T00:31:01;96331.09;;;-2.42;92.05
49451;BME280;35336;48.400;10.886;2023-01-27T00:31:17;96350.72;;;-2.36;91.89
49451;BME280;35336;48.400;10.886;2023-01-27T00:31:32;96346.31;;;-2.36;92.25
49451;BME280;35336;48.400;10.886;2023-01-27T00:31:47;96336.66;;;-2.47;92.32
49451;BME280;35336;48.400;10.886;2023-01-27T00:32:03;96340.81;;;-2.44;92.44
49451;BME280;35336;48.400;10.886;2023-01-27T00:32:19;96342.97;;;-2.38;92.19
49451;BME280;35336;48.400;10.886;2023-01-27T00:32:34;96337.53;;;-2.46;92.30
49451;BME280;35336;48.400;10.886;2023-01-27T00:32:50;96331.69;;;-2.50;92.23
49451;BME280;35336;48.400;10.886;2023-01-27T00:33:05;96342.50;;;-2.43;92.32
49451;BME280;35336;48.400;10.886;2023-01-27T00:33:20;96341.06;;;-2.47;92.27
49451;BME280;35336;48.400;10.886;2023-01-27T00:33:36;96349.38;;;-2.42;92.35
49451;BME280;35336;48.400;10.886;2023-01-27T00:33:51;96341.56;;;-2.42;92.59
49451;BME280;35336;48.400;10.886;2023-01-27T00:34:07;96315.03;;;-2.60;92.12
49451;BME280;35336;48.400;10.886;2023-01-27T00:34:22;96338.94;;;-2.42;92.18
49451;BME280;35336;48.400;10.886;2023-01-27T00:34:37;96347.59;;;-2.42;92.04
49451;BME280;35336;48.400;10.886;2023-01-27T00:34:53;96321.09;;;-2.60;92.11
49451;BME280;35336;48.400;10.886;2023-01-27T00:35:08;96349.38;;;-2.42;92.36
49451;BME280;35336;48.400;10.886;2023-01-27T00:35:23;96349.38;;;-2.42;92.50
49451;BME280;35336;48.400;10.886;2023-01-27T00:35:39;96346.31;;;-2.36;92.41
49451;BME280;35336;48.400;10.886;2023-01-27T00:35:59;96334.91;;;-2.35;92.27
49451;BME280;35336;48.400;10.886;2023-01-27T00:36:14;96347.38;;;-2.27;92.06
49451;BME280;35336;48.400;10.886;2023-01-27T00:36:30;96326.13;;;-2.34;92.11
49451;BME280;35336;48.400;10.886;2023-01-27T00:36:45;96335.63;;;-2.33;91.83
49451;BME280;35336;48.400;10.886;2023-01-27T00:37:00;96338.00;;;-2.30;91.88
49451;BME280;35336;48.400;10.886;2023-01-27T00:37:16;96343.34;;;-2.20;91.80
49451;BME280;35336;48.400;10.886;2023-01-27T00:37:31;96346.81;;;-2.19;91.66
49451;BME280;35336;48.400;10.886;2023-01-27T00:37:47;96337.19;;;-2.19;91.52
49451;BME280;35336;48.400;10.886;2023-01-27T00:38:02;96343.84;;;-2.15;91.64
49451;BME280;35336;48.400;10.886;2023-01-27T00:38:17;96343.94;;;-2.16;91.49
49451;BME280;35336;48.400;10.886;2023-01-27T00:38:35;96299.78;;;-2.42;91.50
49451;BME280;35336;48.400;10.886;2023-01-27T00:38:50;96333.38;;;-2.26;91.29
49451;BME280;35336;48.400;10.886;2023-01-27T00:39:07;96343.59;;;-2.12;91.35
49451;BME280;35336;48.400;10.886;2023-01-27T00:39:23;96339.19;;;-2.22;91.12
49451;BME280;35336;48.400;10.886;2023-01-27T00:39:38;96341.34;;;-2.16;91.35
49451;BME280;35336;48.400;10.886;2023-01-27T00:39:54;96342.06;;;-2.14;91.47
49451;BME280;35336;48.400;10.886;2023-01-27T00:40:10;96338.72;;;-2.16;91.07
49451;BME280;35336;48.400;10.886;2023-01-27T00:40:25;96343.94;;;-2.16;91.38
49451;BME280;35336;48.400;10.886;2023-01-27T00:40:41;96320.66;;;-2.31;91.19
49451;BME280;35336;48.400;10.886;2023-01-27T00:40:56;96329.22;;;-2.29;91.20
49451;BME280;35336;48.400;10.886;2023-01-27T00:41:12;96339.19;;;-2.22;91.47
49451;BME280;35336;48.400;10.886;2023-01-27T00:41:27;96340.25;;;-2.25;91.57
49451;BME280;35336;48.400;10.886;2023-01-27T00:41:42;96342.16;;;-2.27;91.53
49451;BME280;35336;48.400;10.886;2023-01-27T00:41:58;96343.00;;;-2.27;91.64
49451;BME280;35336;48.400;10.886;2023-01-27T00:42:13;96317.56;;;-2.47;91.62
49451;BME280;35336;48.400;10.886;2023-01-27T00:42:28;96333.84;;;-2.32;91.73
49451;BME280;35336;48.400;10.886;2023-01-27T00:42:44;96336.47;;;-2.32;91.70
49451;BME280;35336;48.400;10.886;2023-01-27T00:42:59;96322.53;;;-2.44;91.96
49451;BME280;35336;48.400;10.886;2023-01-27T00:43:14;96344.63;;;-2.37;92.36
49451;BME280;35336;48.400;10.886;2023-01-27T00:43:30;96327.69;;;-2.43;92.32
49451;BME280;35336;48.400;10.886;2023-01-27T00:43:46;96303.53;;;-2.58;92.42
49451;BME280;35336;48.400;10.886;2023-01-27T00:44:03;96340.59;;;-2.41;92.46
49451;BME280;35336;48.400;10.886;2023-01-27T00:44:18;96334.31;;;-2.38;92.53
49451;BME280;35336;48.400;10.886;2023-01-27T00:44:33;96337.88;;;-2.40;92.39
49451;BME280;35336;48.400;10.886;2023-01-27T00:44:49;96316.03;;;-2.50;92.63
49451;BME280;35336;48.400;10.886;2023-01-27T00:45:05;96330.16;;;-2.41;92.63
49451;BME280;35336;48.400;10.886;2023-01-27T00:45:21;96336.09;;;-2.39;92.64
49451;BME280;35336;48.400;10.886;2023-01-27T00:45:36;96328.03;;;-2.36;92.77
49451;BME280;35336;48.400;10.886;2023-01-27T00:45:52;96338.47;;;-2.36;92.68
49451;BME280;35336;48.400;10.886;2023-01-27T00:46:07;96314.13;;;-2.48;92.63
49451;BME280;35336;48.400;10.886;2023-01-27T00:46:24;96341.94;;;-2.35;92.75
49451;BME280;35336;48.400;10.886;2023-01-27T00:46:40;96335.97;;;-2.37;92.73
49451;BME280;35336;48.400;10.886;2023-01-27T00:46:56;96324.34;;;-2.45;92.76
49451;BME280;35336;48.400;10.886;2023-01-27T00:47:11;96333.25;;;-2.36;92.74
49451;BME280;35336;48.400;10.886;2023-01-27T00:47:27;96338.59;;;-2.37;92.82
49451;BME280;35336;48.400;10.886;2023-01-27T00:47:42;96324.56;;;-2.48;92.83
49451;BME280;35336;48.400;10.886;2023-01-27T00:47:58;96338.72;;;-2.39;92.55
49451;BME280;35336;48.400;10.886;2023-01-27T00:48:13;96319.59;;;-2.51;92.76
49451;BME280;35336;48.400;10.886;2023-01-27T00:48:29;96326.47;;;-2.50;92.79
49451;BME280;35336;48.400;10.886;2023-01-27T00:48:44;96327.28;;;-2.49;92.87
49451;BME280;35336;48.400;10.886;2023-01-27T00:49:00;96333.47;;;-2.50;92.82
49451;BME280;35336;48.400;10.886;2023-01-27T00:49:15;96335.00;;;-2.48;93.06
49451;BME280;35336;48.400;10.886;2023-01-27T00:49:30;96341.44;;;-2.41;92.75
49451;BME280;35336;48.400;10.886;2023-01-27T00:49:46;96344.16;;;-2.42;92.99
49451;BME280;35336;48.400;10.886;2023-01-27T00:50:01;96327.28;;;-2.49;93.03
49451;BME280;35336;48.400;10.886;2023-01-27T00:50:17;96342.28;;;-2.40;93.01
49451;BME280;35336;48.400;10.886;2023-01-27T00:50:33;96342.28;;;-2.40;93.00
49451;BME280;35336;48.400;10.886;2023-01-27T00:50:48;96342.28;;;-2.40;93.28
49451;BME280;35336;48.400;10.886;2023-01-27T00:51:04;96340.00;;;-2.45;93.26
49451;BME280;35336;48.400;10.886;2023-01-27T00:51:19;96307.44;;;-2.63;93.09
49451;BME280;35336;48.400;10.886;2023-01-27T00:51:35;96338.94;;;-2.42;93.20
49451;BME280;35336;48.400;10.886;2023-01-27T00:51:50;96341.34;;;-2.39;93.28
49451;BME280;35336;48.400;10.886;2023-01-27T00:52:05;96329.78;;;-2.48;93.24
49451;BME280;35336;48.400;10.886;2023-01-27T00:52:21;96350.81;;;-2.38;93.08
49451;BME280;35336;48.400;10.886;2023-01-27T00:52:36;96343.22;;;-2.41;92.87
49451;BME280;35336;48.400;10.886;2023-01-27T00:52:51;96341.44;;;-2.41;92.88
49451;BME280;35336;48.400;10.886;2023-01-27T00:53:07;96320.66;;;-2.53;92.75
49451;BME280;35336;48.400;10.886;2023-01-27T00:53:22;96345.81;;;-2.41;93.00
49451;BME280;35336;48.400;10.886;2023-01-27T00:53:38;96346.91;;;-2.44;93.07
49451;BME280;35336;48.400;10.886;2023-01-27T00:53:54;96337.59;;;-2.48;92.82
49451;BME280;35336;48.400;10.886;2023-01-27T00:54:09;96341.91;;;-2.47;92.89
49451;BME280;35336;48.400;10.886;2023-01-27T00:54:25;96342.97;;;-2.49;93.17
49451;BME280;35336;48.400;10.886;2023-01-27T00:54:40;96334.66;;;-2.54;93.08
49451;BME280;35336;48.400;10.886;2023-01-27T00:54:55;96341.53;;;-2.53;93.52
49451;BME280;35336;48.400;10.886;2023-01-27T00:55:11;96355.78;;;-2.46;93.58
49451;BME280;35336;48.400;10.886;2023-01-27T00:55:27;96321.06;;;-2.71;93.65
49451;BME280;35336;48.400;10.886;2023-01-27T00:55:42;96342.56;;;-2.56;93.60
49451;BME280;35336;48.400;10.886;2023-01-27T00:55:57;96323.69;;;-2.71;93.79
49451;BME280;35336;48.400;10.886;2023-01-27T00:56:13;96351.25;;;-2.56;93.64
49451;BME280;35336;48.400;10.886;2023-01-27T00:56:28;96361.25;;;-2.49;94.03
49451;BME280;35336;48.400;10.886;2023-01-27T00:56:44;96368.38;;;-2.40;94.07
49451;BME280;35336;48.400;10.886;2023-01-27T00:56:59;96361.25;;;-2.38;93.80
49451;BME280;35336;48.400;10.886;2023-01-27T00:57:14;96364.84;;;-2.28;93.64
49451;BME280;35336;48.400;10.886;2023-01-27T00:57:30;96359.50;;;-2.26;93.51
49451;BME280;35336;48.400;10.886;2023-01-27T00:57:45;96331.91;;;-2.53;93.09
49451;BME280;35336;48.400;10.886;2023-01-27T00:58:01;96371.13;;;-2.30;92.89
49451;BME280;35336;48.400;10.886;2023-01-27T00:58:16;96334.91;;;-2.46;93.02
49451;BME280;35336;48.400;10.886;2023-01-27T00:58:32;96329.91;;;-2.49;93.00
49451;BME280;35336;48.400;10.886;2023-01-27T00:58:47;96370.19;;;-2.29;93.12
49451;BME280;35336;48.400;10.886;2023-01-27T00:59:03;96366.84;;;-2.31;93.00
49451;BME280;35336;48.400;10.886;2023-01-27T00:59:19;96337.94;;;-2.52;93.18
49451;BME280;35336;48.400;10.886;2023-01-27T00:59:34;96359.84;;;-2.31;93.09
49451;BME280;35336;48.400;10.886;2023-01-27T00:59:49;96365.06;;;-2.31;93.35
49451;BME280;35336;48.400;10.886;2023-01-27T01:00:05;96371.25;;;-2.32;93.64
49451;BME280;35336;48.400;10.886;2023-01-27T01:00:20;96354.38;;;-2.39;93.84
49451;BME280;35336;48.400;10.886;2023-01-27T01:00:36;96366.84;;;-2.31;93.73
49451;BME280;35336;48.400;10.886;2023-01-27T01:00:53;96351.19;;;-2.43;93.67
49451;BME280;35336;48.400;10.886;2023-01-27T01:01:11;96357.81;;;-2.38;93.72
49451;BME280;35336;48.400;10.886;2023-01-27T01:01:27;96376.69;;;-2.35;93.65
49451;BME280;35336;48.400;10.886;2023-01-27T01:01:42;96341.28;;;-2.50;93.60
49451;BME280;35336;48.400;10.886;2023-01-27T01:01:57;96348.06;;;-2.48;93.65
49451;BME280;35336;48.400;10.886;2023-01-27T01:02:13;96369.34;;;-2.30;93.56
49451;BME280;35336;48.400;10.886;2023-01-27T01:02:28;96373.50;;;-2.27;93.47
49451;BME280;35336;48.400;10.886;2023-01-27T01:02:43;96369.34;;;-2.30;93.50
49451;BME280;35336;48.400;10.886;2023-01-27T01:02:59;96364.38;;;-2.33;93.35
49451;BME280;35336;48.400;10.886;2023-01-27T01:03:14;96370.41;;;-2.32;93.45
49451;BME280;35336;48.400;10.886;2023-01-27T01:03:31;96368.66;;;-2.32;93.68
49451;BME280;35336;48.400;10.886;2023-01-27T01:03:47;96366.97;;;-2.33;93.47
49451;BME280;35336;48.400;10.886;2023-01-27T01:04:03;96373.16;;;-2.34;93.64
49451;BME280;35336;48.400;10.886;2023-01-27T01:04:18;96363.38;;;-2.43;93.68
49451;BME280;35336;48.400;10.886;2023-01-27T01:04:33;96358.41;;;-2.46;93.45
49451;BME280;35336;48.400;10.886;2023-01-27T01:04:49;96375.97;;;-2.37;93.73
49451;BME280;35336;48.400;10.886;2023-01-27T01:05:04;96373.50;;;-2.38;93.75
49451;BME280;35336;48.400;10.886;2023-01-27T01:05:19;96349.59;;;-2.57;93.41
49451;BME280;35336;48.400;10.886;2023-01-27T01:05:35;96357.19;;;-2.53;93.47
49451;BME280;35336;48.400;10.886;2023-01-27T01:05:51;96361.44;;;-2.52;93.39
49451;BME280;35336;48.400;10.886;2023-01-27T01:06:09;96377.38;;;-2.44;93.65
49451;BME280;35336;48.400;10.886;2023-01-27T01:06:25;96367.19;;;-2.47;93.71
49451;BME280;35336;48.400;10.886;2023-01-27T01:06:41;96379.44;;;-2.36;93.64
49451;BME280;35336;48.400;10.886;2023-01-27T01:06:56;96376.91;;;-2.38;93.49
49451;BME280;35336;48.400;10.886;2023-01-27T01:07:11;96377.88;;;-2.39;93.54
49451;BME280;35336;48.400;10.886;2023-01-27T01:07:27;96371.81;;;-2.40;93.83
49451;BME280;35336;48.400;10.886;2023-01-27T01:07:42;96378.59;;;-2.37;93.53
49451;BME280;35336;48.400;10.886;2023-01-27T01:07:57;96361.03;;;-2.46;93.44
49451;BME280;35336;48.400;10.886;2023-01-27T01:08:13;96381.91;;;-2.35;93.24
49451;BME280;35336;48.400;10.886;2023-01-27T01:08:32;96377.75;;;-2.37;93.33
49451;BME280;35336;48.400;10.886;2023-01-27T01:08:48;96383.81;;;-2.37;93.19
49451;BME280;35336;48.400;10.886;2023-01-27T01:09:04;96377.75;;;-2.37;93.38
49451;BME280;35336;48.400;10.886;2023-01-27T01:09:19;96375.28;;;-2.39;93.06
49451;BME280;35336;48.400;10.886;2023-01-27T01:09:34;96371.47;;;-2.35;93.19
49451;BME280;35336;48.400;10.886;2023-01-27T01:09:50;96365.19;;;-2.44;93.42
49451;BME280;35336;48.400;10.886;2023-01-27T01:10:05;96375.03;;;-2.36;93.32
49451;BME280;35336;48.400;10.886;2023-01-27T01:10:21;96364.94;;;-2.41;93.51
49451;BME280;35336;48.400;10.886;2023-01-27T01:10:37;96382.66;;;-2.33;93.50
49451;BME280;35336;48.400;10.886;2023-01-27T01:10:53;96346.63;;;-2.52;93.27
49451;BME280;35336;48.400;10.886;2023-01-27T01:11:11;96366.94;;;-2.44;93.28
49451;BME280;35336;48.400;10.886;2023-01-27T01:11:27;96366.94;;;-2.44;93.31
49451;BME280;35336;48.400;10.886;2023-01-27T01:11:42;96361.97;;;-2.47;93.33
49451;BME280;35336;48.400;10.886;2023-01-27T01:11:58;96376.91;;;-2.38;93.35
49451;BME280;35336;48.400;10.886;2023-01-27T01:12:13;96358.41;;;-2.46;93.39
49451;BME280;35336;48.400;10.886;2023-01-27T01:12:28;96356.34;;;-2.54;93.67
49451;BME280;35336;48.400;10.886;2023-01-27T01:12:44;96380.25;;;-2.36;93.88
49451;BME280;35336;48.400;10.886;2023-01-27T01:12:59;96375.28;;;-2.39;93.86
49451;BME280;35336;48.400;10.886;2023-01-27T01:13:14;96367.53;;;-2.41;93.76
49451;BME280;35336;48.400;10.886;2023-01-27T01:13:30;96343.19;;;-2.52;93.81
49451;BME280;35336;48.400;10.886;2023-01-27T01:13:46;96381.91;;;-2.35;93.89
49451;BME280;35336;48.400;10.886;2023-01-27T01:14:01;96357.34;;;-2.44;93.74
49451;BME280;35336;48.400;10.886;2023-01-27T01:14:17;96361.72;;;-2.44;93.92
49451;BME280;35336;48.400;10.886;2023-01-27T01:14:32;96374.09;;;-2.35;93.84
49451;BME280;35336;48.400;10.886;2023-01-27T01:14:47;96373.97;;;-2.33;94.06
49451;BME280;35336;48.400;10.886;2023-01-27T01:15:03;96344.25;;;-2.55;93.83
49451;BME280;35336;48.400;10.886;2023-01-27T01:15:19;96364.94;;;-2.41;93.92
49451;BME280;35336;48.400;10.886;2023-01-27T01:15:35;96378.25;;;-2.32;93.84
49451;BME280;35336;48.400;10.886;2023-01-27T01:15:50;96379.09;;;-2.32;94.12
49451;BME280;35336;48.400;10.886;2023-01-27T01:16:14;96376.22;;;-2.29;94.07
49451;BME280;35336;48.400;10.886;2023-01-27T01:16:29;96362.69;;;-2.34;93.91
49451;BME280;35336;48.400;10.886;2023-01-27T01:16:45;96364.59;;;-2.36;93.95
49451;BME280;35336;48.400;10.886;2023-01-27T01:17:00;96362.81;;;-2.35;93.79
49451;BME280;35336;48.400;10.886;2023-01-27T01:17:15;96372.69;;;-2.28;93.85
49451;BME280;35336;48.400;10.886;2023-01-27T01:17:30;96377.91;;;-2.28;93.96
49451;BME280;35336;48.400;10.886;2023-01-27T01:17:46;96379.78;;;-2.30;94.15
49451;BME280;35336;48.400;10.886;2023-01-27T01:18:04;96373.28;;;-2.35;94.07
49451;BME280;35336;48.400;10.886;2023-01-27T01:18:20;96367.91;;;-2.34;93.94
49451;BME280;35336;48.400;10.886;2023-01-27T01:18:36;96359.38;;;-2.36;93.73
49451;BME280;35336;48.400;10.886;2023-01-27T01:18:52;96355.09;;;-2.37;93.74
49451;BME280;35336;48.400;10.886;2023-01-27T01:19:07;96376.72;;;-2.24;93.43
49451;BME280;35336;48.400;10.886;2023-01-27T01:19:23;96371.72;;;-2.27;93.43
49451;BME280;35336;48.400;10.886;2023-01-27T01:19:38;96374.34;;;-2.27;93.47
49451;BME280;35336;48.400;10.886;2023-01-27T01:19:53;96380.50;;;-2.28;93.34
49451;BME280;35336;48.400;10.886;2023-01-27T01:20:09;96363.03;;;-2.38;93.56
49451;BME280;35336;48.400;10.886;2023-01-27T01:20:25;96378.97;;;-2.30;93.40
49451;BME280;35336;48.400;10.886;2023-01-27T01:20:42;96376.34;;;-2.30;93.62
49451;BME280;35336;48.400;10.886;2023-01-27T01:20:58;96376.22;;;-2.29;93.58
49451;BME280;35336;48.400;10.886;2023-01-27T01:21:14;96374.69;;;-2.31;93.30
49451;BME280;35336;48.400;10.886;2023-01-27T01:21:29;96347.38;;;-2.38;93.50
49451;BME280;35336;48.400;10.886;2023-01-27T01:21:45;96377.44;;;-2.21;93.62
49451;BME280;35336;48.400;10.886;2023-01-27T01:22:00;96379.09;;;-2.20;93.57